.
WxDataArchive / Data Records for 2009-12-25
2009-12-24 December 2009 2009-12-26

Data Records for Friday, 25 December 2009

Time	Temp	Chill	HIndex	Humid	Dewpt	 Wind 	HiWind	WindDir	Rain 	Barom 
-----	----	-----	------	-----	-----	------	------	-------	-----	----- 
00:00	34.9	29.7	34.9	73	27.1	6	12	90	0.00	29.911 
00:05	34.9	31.4	34.9	73	27.1	4	9	112	0.00	29.911 
00:10	34.9	29.7	34.9	73	27.1	6	13	90	0.00	29.911 
00:15	34.9	29.0	34.9	73	27.1	7	14	90	0.00	29.899 
00:20	34.9	29.7	34.9	73	27.1	6	13	112	0.00	29.899 
00:25	34.7	28.8	34.7	73	26.9	7	15	90	0.00	29.899 
00:30	34.7	30.2	34.7	74	27.3	5	12	112	0.00	29.885 
00:35	34.7	29.4	34.7	74	27.3	6	12	112	0.00	29.885 
00:40	34.7	30.2	34.7	74	27.3	5	13	112	0.00	29.885 
00:45	34.7	29.4	34.7	74	27.3	6	13	90	0.00	29.876 
00:50	34.6	29.3	34.6	75	27.5	6	17	112	0.00	29.876 
00:55	34.6	30.1	34.6	76	27.8	5	9	90	0.00	29.876 
01:00	34.4	29.9	34.4	78	28.3	5	10	112	0.00	29.865 
01:05	34.3	29.8	34.3	78	28.2	5	11	112	0.00	29.865 
01:10	34.1	28.7	34.1	79	28.3	6	12	90	0.00	29.865 
01:15	34.1	29.5	34.1	79	28.3	5	11	90	0.00	29.851 
01:20	34.3	29.0	34.3	79	28.5	6	14	112	0.00	29.851 
01:25	34.3	29.8	34.3	78	28.2	5	13	112	0.00	29.851 
01:30	34.4	29.1	34.4	77	27.9	6	11	112	0.00	29.845 
01:35	34.4	29.1	34.4	77	27.9	6	12	112	0.00	29.845 
01:40	34.4	29.1	34.4	77	27.9	6	11	90	0.00	29.845 
01:45	34.6	29.3	34.6	77	28.1	6	16	90	0.00	29.835 
01:50	34.7	29.4	34.7	76	27.9	6	12	90	0.00	29.835 
01:55	34.7	30.2	34.7	76	27.9	5	11	112	0.00	29.835 
02:00	34.7	29.4	34.7	76	27.9	6	12	90	0.00	29.837 
02:05	34.9	29.7	34.9	77	28.4	6	14	112	0.00	29.837 
02:10	34.7	29.4	34.7	77	28.2	6	12	112	0.00	29.837 
02:15	34.7	30.2	34.7	77	28.2	5	16	90	0.00	29.847 
02:20	34.7	31.2	34.7	78	28.6	4	10	90	0.00	29.847 
02:25	34.4	34.4	34.4	80	28.9	3	6	90	0.00	29.847 
02:30	34.3	30.7	34.3	81	29.1	4	11	112	0.00	29.832 
02:35	34.3	30.7	34.3	82	29.4	4	13	90	0.00	29.832 
02:40	34.1	30.5	34.1	83	29.5	4	10	90	0.00	29.832 
02:45	34.0	29.4	34.0	84	29.7	5	12	90	0.00	29.819 
02:50	33.8	30.2	33.8	85	29.8	4	10	90	0.00	29.819 
02:55	33.8	29.2	33.8	85	29.8	5	9	112	0.00	29.819 
03:00	33.8	29.2	33.8	86	30.1	5	9	112	0.00	29.815 
03:05	33.7	28.3	33.7	87	30.3	6	11	112	0.00	29.815 
03:10	33.7	29.1	33.7	87	30.3	5	10	90	0.00	29.815 
03:15	33.7	29.1	33.7	87	30.3	5	11	90	0.00	29.802 
03:20	33.7	28.3	33.7	88	30.5	6	13	90	0.00	29.802 
03:25	33.8	29.2	33.8	88	30.6	5	11	90	0.00	29.802 
03:30	34.0	29.4	34.0	88	30.8	5	11	90	0.00	29.802 
03:35	34.1	28.7	34.1	88	30.9	6	12	90	0.00	29.802 
03:40	34.3	29.0	34.3	88	31.1	6	13	112	0.00	29.802 
03:45	34.1	28.0	34.1	88	30.9	7	12	112	0.00	29.787 
03:50	34.1	28.7	34.1	88	30.9	6	13	90	0.00	29.787 
03:55	34.0	28.6	34.0	88	30.8	6	11	90	0.00	29.787 
04:00	34.0	28.6	34.0	89	31.1	6	12	90	0.00	29.783 
04:05	33.8	28.4	33.8	89	30.9	6	12	90	0.00	29.783 
04:10	33.8	28.4	33.8	90	31.2	6	13	90	0.00	29.783 
04:15	33.7	28.3	33.7	90	31.1	6	14	90	0.00	29.761 
04:20	33.7	27.5	33.7	91	31.4	7	14	90	0.00	29.761 
04:25	33.7	29.1	33.7	91	31.4	5	12	90	0.00	29.761 
04:30	33.7	29.1	33.7	92	31.6	5	11	112	0.00	29.756 
04:35	33.8	28.4	33.8	92	31.7	6	12	90	0.00	29.756 
04:40	33.8	29.2	33.8	92	31.7	5	12	90	0.00	29.756 
04:45	34.0	28.6	34.0	92	31.9	6	12	112	0.00	29.742 
04:50	34.0	29.4	34.0	92	31.9	5	12	90	0.00	29.742 
04:55	34.0	30.4	34.0	93	32.2	4	10	112	0.00	29.742 
05:00	34.0	29.4	34.0	93	32.2	5	13	112	0.00	29.720 
05:05	34.1	29.5	34.1	93	32.3	5	10	112	0.00	29.720 
05:10	34.1	29.5	34.1	93	32.3	5	10	112	0.00	29.720 
05:15	34.4	29.1	34.4	94	32.9	6	13	112	0.00	29.706 
05:20	34.6	28.6	34.6	94	33.1	7	16	112	0.00	29.706 
05:25	34.9	29.7	34.9	94	33.4	6	12	112	0.00	29.706 
05:30	35.0	29.8	35.0	94	33.5	6	11	90	0.00	29.700 
05:35	35.2	29.4	35.2	94	33.6	7	13	90	0.00	29.700 
05:40	35.3	29.5	35.3	94	33.7	7	13	90	0.00	29.700 
05:45	35.5	29.1	35.5	94	33.9	8	18	90	0.00	29.677 
05:50	35.6	29.8	35.6	94	34.0	7	14	112	0.00	29.677 
05:55	35.8	30.1	35.8	95	34.5	7	19	112	0.00	29.677 
06:00	36.0	31.0	36.0	95	34.7	6	14	90	0.00	29.666 
06:05	36.2	30.6	36.2	95	34.9	7	14	112	0.00	29.666 
06:10	36.2	30.6	36.2	95	34.9	7	13	90	0.00	29.666 
06:15	36.5	31.6	36.5	95	35.2	6	15	90	0.00	29.666 
06:20	36.6	31.0	36.6	95	35.3	7	15	112	0.00	29.666 
06:25	36.8	30.7	36.8	95	35.5	8	15	90	0.00	29.666 
06:30	36.9	31.4	36.9	95	35.6	7	15	112	0.00	29.656 
06:35	37.0	31.5	37.0	95	35.7	7	13	112	0.00	29.656 
06:40	37.2	31.2	37.2	95	35.9	8	14	90	0.00	29.656 
06:45	37.3	31.9	37.3	95	36.0	7	15	112	0.00	29.653 
06:50	37.3	30.8	37.3	95	36.0	9	16	90	0.00	29.653 
06:55	37.3	30.8	37.3	95	36.0	9	14	112	0.00	29.653 
07:00	37.5	31.5	37.5	95	36.2	8	14	112	0.00	29.653 
07:05	37.6	31.7	37.6	95	36.3	8	15	112	0.00	29.653 
07:10	37.6	32.2	37.6	95	36.3	7	14	112	0.00	29.653 
07:15	37.6	32.9	37.6	95	36.3	6	15	90	0.00	29.645 
07:20	37.6	31.7	37.6	95	36.3	8	14	112	0.00	29.645 
07:25	37.6	31.7	37.6	95	36.3	8	15	112	0.00	29.645 
07:30	37.6	32.2	37.6	95	36.3	7	12	112	0.00	29.640 
07:35	37.5	32.8	37.5	95	36.2	6	12	90	0.00	29.640 
07:40	37.5	31.5	37.5	95	36.2	8	13	112	0.01	29.640 
07:45	37.5	32.8	37.5	95	36.2	6	12	90	0.00	29.644 
07:50	37.5	32.8	37.5	95	36.2	6	12	112	0.00	29.644 
07:55	37.5	32.8	37.5	95	36.2	6	15	112	0.00	29.644 
08:00	37.6	32.2	37.6	95	36.3	7	15	90	0.00	29.638 
08:05	37.5	33.5	37.5	95	36.2	5	10	112	0.00	29.638 
08:10	37.6	33.7	37.6	95	36.3	5	12	90	0.00	29.638 
08:15	37.5	34.4	37.5	95	36.2	4	9	112	0.00	29.643 
08:20	37.5	34.4	37.5	95	36.2	4	8	90	0.00	29.643 
08:25	37.5	34.4	37.5	95	36.2	4	9	90	0.00	29.643 
08:30	37.6	37.6	37.6	95	36.3	3	6	90	0.00	29.652 
08:35	37.8	37.8	37.8	95	36.5	2	5	90	0.00	29.652 
08:40	38.2	35.2	38.2	96	37.2	4	7	112	0.00	29.652 
08:45	38.3	35.4	38.3	95	37.0	4	7	112	0.00	29.653 
08:50	38.5	35.6	38.5	95	37.2	4	8	112	0.00	29.653 
08:55	38.8	35.9	38.8	95	37.5	4	13	112	0.00	29.653 
09:00	39.1	34.7	39.1	95	37.8	6	15	112	0.00	29.653 
09:05	39.3	34.9	39.3	94	37.7	6	12	112	0.00	29.653 
09:10	39.6	34.7	39.6	92	37.5	7	16	112	0.00	29.653 
09:15	39.8	36.2	39.8	92	37.7	5	11	112	0.00	29.651 
09:20	39.9	35.6	39.9	91	37.5	6	14	112	0.00	29.651 
09:25	40.1	35.9	40.1	90	37.4	6	14	112	0.00	29.651 
09:30	40.1	35.9	40.1	90	37.4	6	11	112	0.00	29.650 
09:35	40.1	36.6	40.1	90	37.4	5	11	112	0.00	29.650 
09:40	40.2	35.4	40.2	89	37.2	7	15	112	0.00	29.650 
09:45	40.3	36.1	40.3	89	37.3	6	16	112	0.01	29.651 
09:50	40.5	36.4	40.5	88	37.2	6	12	90	0.00	29.651 
09:55	40.6	36.5	40.6	88	37.3	6	12	112	0.00	29.651 
10:00	40.6	35.9	40.6	87	37.0	7	13	112	0.00	29.650 
10:05	40.6	35.9	40.6	87	37.0	7	16	112	0.00	29.650 
10:10	40.5	36.4	40.5	87	36.9	6	12	112	0.00	29.650 
10:15	40.5	35.7	40.5	88	37.2	7	14	112	0.00	29.649 
10:20	40.5	35.7	40.5	87	36.9	7	12	112	0.00	29.649 
10:25	40.5	36.4	40.5	87	36.9	6	15	112	0.00	29.649 
10:30	40.6	35.9	40.6	87	37.0	7	18	90	0.00	29.646 
10:35	40.6	35.9	40.6	87	37.0	7	14	112	0.00	29.646 
10:40	40.5	36.4	40.5	88	37.2	6	12	112	0.00	29.646 
10:45	40.3	35.5	40.3	88	37.0	7	12	112	0.00	29.645 
10:50	40.3	35.5	40.3	88	37.0	7	15	112	0.00	29.645 
10:55	40.3	36.1	40.3	88	37.0	6	13	112	0.00	29.645 
11:00	40.5	35.7	40.5	88	37.2	7	14	112	0.00	29.638 
11:05	40.5	37.1	40.5	88	37.2	5	13	112	0.00	29.638 
11:10	40.6	36.5	40.6	88	37.3	6	14	112	0.00	29.638 
11:15	40.6	36.5	40.6	88	37.3	6	17	112	0.00	29.631 
11:20	40.8	37.4	40.8	88	37.5	5	12	112	0.00	29.631 
11:25	40.9	36.2	40.9	87	37.3	7	11	112	0.00	29.631 
11:30	41.2	36.6	41.2	86	37.3	7	13	112	0.00	29.622 
11:35	41.3	36.7	41.3	86	37.4	7	15	112	0.00	29.622 
11:40	41.5	37.5	41.5	86	37.6	6	14	112	0.00	29.622 
11:45	41.6	37.7	41.6	86	37.7	6	12	112	0.00	29.616 
11:50	41.8	37.9	41.8	86	37.9	6	15	112	0.00	29.616 
11:55	41.9	38.0	41.9	86	38.0	6	13	112	0.00	29.616 
12:00	41.9	38.7	41.9	85	37.7	5	12	112	0.00	29.604 
12:05	41.9	37.4	41.9	86	38.0	7	14	90	0.00	29.604 
12:10	41.9	38.0	41.9	86	38.0	6	15	112	0.00	29.604 
12:15	41.8	37.9	41.8	87	38.2	6	11	112	0.00	29.600 
12:20	41.8	37.3	41.8	87	38.2	7	17	112	0.00	29.600 
12:25	41.8	39.4	41.8	88	38.5	4	9	112	0.00	29.600 
12:30	41.6	38.4	41.6	88	38.3	5	12	112	0.00	29.593 
12:35	41.8	37.9	41.8	88	38.5	6	16	112	0.00	29.593 
12:40	41.8	39.4	41.8	88	38.5	4	13	112	0.00	29.593 
12:45	41.8	39.4	41.8	89	38.8	4	11	112	0.00	29.585 
12:50	41.9	38.7	41.9	90	39.2	5	11	112	0.00	29.585 
12:55	41.9	38.7	41.9	90	39.2	5	12	112	0.00	29.585 
13:00	41.9	39.5	41.9	90	39.2	4	9	112	0.00	29.572 
13:05	42.1	39.7	42.1	91	39.7	4	10	112	0.00	29.572 
13:10	42.1	38.9	42.1	91	39.7	5	10	112	0.00	29.572 
13:15	42.3	37.9	42.3	91	39.9	7	15	112	0.00	29.565 
13:20	42.5	40.2	42.5	91	40.1	4	7	112	0.00	29.565 
13:25	42.6	40.3	42.6	90	39.9	4	11	112	0.00	29.565 
13:30	42.8	39.8	42.8	90	40.1	5	11	112	0.00	29.554 
13:35	42.8	39.8	42.8	90	40.1	5	10	112	0.00	29.554 
13:40	42.9	40.7	42.9	90	40.2	4	10	90	0.00	29.554 
13:45	43.1	40.1	43.1	90	40.4	5	11	112	0.00	29.550 
13:50	43.1	40.1	43.1	89	40.1	5	10	112	0.00	29.550 
13:55	43.1	40.9	43.1	89	40.1	4	8	112	0.00	29.550 
14:00	43.1	40.9	43.1	90	40.4	4	11	112	0.00	29.551 
14:05	43.2	40.2	43.2	90	40.5	5	14	90	0.00	29.551 
14:10	43.2	40.2	43.2	90	40.5	5	11	90	0.00	29.551 
14:15	43.2	40.2	43.2	90	40.5	5	16	112	0.00	29.550 
14:20	43.2	43.2	43.2	90	40.5	2	5	112	0.00	29.550 
14:25	43.2	41.0	43.2	91	40.8	4	7	112	0.00	29.550 
14:30	43.3	41.1	43.3	91	40.9	4	11	112	0.00	29.541 
14:35	43.5	41.4	43.5	91	41.0	4	9	112	0.00	29.541 
14:40	43.5	43.5	43.5	91	41.0	3	9	112	0.00	29.541 
14:45	43.5	43.5	43.5	91	41.0	2	8	112	0.00	29.542 
14:50	43.6	43.6	43.6	91	41.1	3	7	112	0.01	29.542 
14:55	43.6	43.6	43.6	92	41.4	3	7	90	0.00	29.542 
15:00	43.6	43.6	43.6	92	41.4	2	5	112	0.01	29.548 
15:05	43.8	43.8	43.8	92	41.6	2	5	90	0.01	29.548 
15:10	43.9	43.9	43.9	93	42.0	2	6	158	0.01	29.548 
15:15	43.8	43.8	43.8	93	41.9	2	7	112	0.01	29.550 
15:20	43.8	43.8	43.8	93	41.9	2	6	135	0.01	29.550 
15:25	43.8	43.8	43.8	94	42.2	1	3	135	0.00	29.550 
15:30	43.8	43.8	43.8	94	42.2	1	4	135	0.01	29.549 
15:35	43.8	43.8	43.8	94	42.2	1	3	135	0.01	29.549 
15:40	43.8	43.8	43.8	94	42.2	1	3	135	0.00	29.549 
15:45	43.8	43.8	43.8	94	42.2	1	2	135	0.00	29.560 
15:50	43.8	43.8	43.8	94	42.2	1	4	270	0.01	29.560 
15:55	43.9	43.9	43.9	95	42.6	2	5	90	0.01	29.560 
16:00	44.2	44.2	44.2	95	42.9	3	7	112	0.01	29.563 
16:05	44.2	44.2	44.2	95	42.9	1	5	90	0.00	29.563 
16:10	44.2	44.2	44.2	94	42.6	1	3	112	0.00	29.563 
16:15	44.2	44.2	44.2	94	42.6	1	3	135	0.00	29.563 
16:20	44.2	44.2	44.2	95	42.9	2	4	112	0.01	29.563 
16:25	44.2	44.2	44.2	95	42.9	1	4	135	0.00	29.563 
16:30	44.2	44.2	44.2	94	42.6	2	6	112	0.00	29.567 
16:35	44.2	44.2	44.2	94	42.6	2	4	112	0.00	29.567 
16:40	44.3	44.3	44.3	95	43.0	2	7	90	0.01	29.567 
16:45	44.1	44.1	44.1	94	42.5	3	10	248	0.01	29.584 
16:50	43.5	41.4	43.5	94	41.9	4	11	270	0.00	29.584 
16:55	43.2	43.2	43.2	94	41.6	3	8	248	0.00	29.584 
17:00	42.8	42.8	42.8	93	40.9	3	10	248	0.01	29.600 
17:05	41.9	38.0	41.9	93	40.0	6	11	270	0.01	29.600 
17:10	41.2	37.9	41.2	92	39.1	5	12	248	0.00	29.600 
17:15	40.8	38.2	40.8	92	38.7	4	10	248	0.00	29.609 
17:20	40.5	37.9	40.5	92	38.4	4	7	248	0.00	29.609 
17:25	40.3	37.7	40.3	92	38.2	4	12	248	0.01	29.609 
17:30	40.2	40.2	40.2	92	38.1	3	9	248	0.00	29.618 
17:35	40.1	40.1	40.1	92	38.0	2	10	270	0.00	29.618 
17:40	39.9	39.9	39.9	92	37.8	2	9	248	0.00	29.618 
17:45	39.6	36.0	39.6	92	37.5	5	10	248	0.00	29.634 
17:50	39.1	36.3	39.1	92	37.0	4	14	248	0.00	29.634 
17:55	38.5	38.5	38.5	91	36.1	3	9	225	0.00	29.634 
18:00	38.2	35.2	38.2	92	36.1	4	10	270	0.00	29.649 
18:05	37.9	37.9	37.9	92	35.8	3	7	248	0.00	29.649 
18:10	37.6	37.6	37.6	92	35.5	2	7	248	0.00	29.649 
18:15	37.5	37.5	37.5	91	35.1	3	9	248	0.00	29.654 
18:20	37.5	37.5	37.5	91	35.1	2	6	248	0.00	29.654 
18:25	37.3	37.3	37.3	91	34.9	2	5	248	0.00	29.654 
18:30	37.3	37.3	37.3	92	35.2	1	4	248	0.00	29.667 
18:35	37.2	37.2	37.2	92	35.1	1	6	248	0.00	29.667 
18:40	37.0	37.0	37.0	91	34.6	3	8	248	0.00	29.667 
18:45	36.8	33.6	36.8	91	34.4	4	11	248	0.00	29.671 
18:50	36.5	33.3	36.5	90	33.9	4	12	248	0.00	29.671 
18:55	36.2	36.2	36.2	89	33.3	3	10	248	0.00	29.671 
19:00	36.0	36.0	36.0	89	33.1	3	6	248	0.00	29.683 
19:05	35.9	35.9	35.9	88	32.7	3	12	248	0.00	29.683 
19:10	35.9	35.9	35.9	88	32.7	2	6	248	0.00	29.683 
19:15	35.8	35.8	35.8	87	32.3	3	7	248	0.00	29.697 
19:20	35.6	35.6	35.6	87	32.1	3	7	248	0.00	29.697 
19:25	35.5	32.1	35.5	86	31.7	4	10	248	0.00	29.697 
19:30	35.3	31.9	35.3	84	31.0	4	9	248	0.00	29.713 
19:35	35.2	35.2	35.2	81	30.0	3	10	248	0.00	29.713 
19:40	35.2	35.2	35.2	81	30.0	2	5	248	0.00	29.713 
19:45	35.0	35.0	35.0	81	29.8	2	7	270	0.00	29.715 
19:50	34.9	34.9	34.9	80	29.4	3	7	270	0.00	29.715 
19:55	34.4	29.9	34.4	83	29.8	5	12	248	0.00	29.715 
20:00	34.1	34.1	34.1	80	28.6	3	7	248	0.00	29.727 
20:05	34.0	34.0	34.0	80	28.5	3	7	248	0.00	29.727 
20:10	34.0	34.0	34.0	80	28.5	3	9	248	0.00	29.727 
20:15	33.8	33.8	33.8	79	28.0	3	10	248	0.00	29.730 
20:20	33.8	33.8	33.8	79	28.0	2	7	248	0.00	29.730 
20:25	33.7	33.7	33.7	79	27.9	3	7	248	0.00	29.730 
20:30	33.5	33.5	33.5	79	27.7	3	7	248	0.00	29.739 
20:35	33.2	29.5	33.2	78	27.1	4	13	248	0.00	29.739 
20:40	32.9	32.9	32.9	78	26.8	3	7	248	0.00	29.739 
20:45	32.7	28.9	32.7	78	26.6	4	11	248	0.00	29.749 
20:50	32.4	28.5	32.4	77	26.0	4	12	248	0.00	29.749 
20:55	32.2	32.2	32.2	77	25.8	3	10	248	0.00	29.749 
21:00	32.1	28.2	32.1	77	25.7	4	11	248	0.00	29.760 
21:05	31.9	31.9	31.9	77	25.5	3	11	248	0.00	29.760 
21:10	31.8	27.8	31.8	77	25.4	4	11	248	0.00	29.760 
21:15	31.8	31.8	31.8	77	25.4	2	5	248	0.00	29.764 
21:20	31.6	31.6	31.6	77	25.2	3	10	248	0.00	29.764 
21:25	31.5	31.5	31.5	77	25.1	3	10	248	0.00	29.764 
21:30	31.5	27.5	31.5	77	25.1	4	9	248	0.00	29.773 
21:35	31.3	31.3	31.3	77	24.9	2	4	225	0.00	29.773 
21:40	31.3	31.3	31.3	77	24.9	1	4	248	0.00	29.773 
21:45	31.3	31.3	31.3	78	25.3	2	9	248	0.00	29.777 
21:50	31.2	31.2	31.2	77	24.8	3	6	248	0.00	29.777 
21:55	31.0	31.0	31.0	77	24.7	3	7	248	0.00	29.777 
22:00	31.0	31.0	31.0	77	24.7	2	6	248	0.00	29.780 
22:05	30.9	30.9	30.9	77	24.6	3	10	248	0.00	29.780 
22:10	30.9	30.9	30.9	77	24.6	1	3	248	0.00	29.780 
22:15	30.9	30.9	30.9	78	24.9	2	5	248	0.00	29.788 
22:20	30.9	30.9	30.9	77	24.6	2	5	248	0.00	29.788 
22:25	30.9	30.9	30.9	78	24.9	2	5	248	0.00	29.788 
22:30	30.9	30.9	30.9	78	24.9	2	6	248	0.00	29.795 
22:35	30.7	30.7	30.7	77	24.4	2	8	248	0.00	29.795 
22:40	30.7	30.7	30.7	77	24.4	2	6	248	0.00	29.795 
22:45	30.7	30.7	30.7	77	24.4	2	8	248	0.00	29.796 
22:50	30.7	30.7	30.7	77	24.4	3	10	248	0.00	29.796 
22:55	30.7	30.7	30.7	76	24.0	2	7	248	0.00	29.796 
23:00	30.7	30.7	30.7	76	24.0	3	9	248	0.00	29.801 
23:05	30.7	30.7	30.7	76	24.0	1	4	248	0.00	29.801 
23:10	30.7	30.7	30.7	77	24.4	2	6	248	0.00	29.801 
23:15	30.6	30.6	30.6	76	24.0	3	6	248	0.00	29.799 
23:20	30.6	30.6	30.6	76	24.0	3	9	248	0.00	29.799 
23:25	30.6	30.6	30.6	76	24.0	3	12	248	0.00	29.799 
23:30	30.6	26.5	30.6	76	24.0	4	9	248	0.00	29.808 
23:35	30.4	26.2	30.4	75	23.4	4	11	248	0.00	29.808 
23:40	30.4	26.2	30.4	73	22.8	4	12	248	0.00	29.808 
23:45	30.3	26.1	30.3	73	22.7	4	9	248	0.00	29.813 
23:50	30.3	26.1	30.3	73	22.7	4	10	248	0.00	29.813 
23:55	30.1	25.9	30.1	71	21.9	4	15	248	0.00	29.813 

CoCoRaHS
IN-AL-39
A2 Web Hosting
Creative Commons License
GoDaddy
search engine by freefind advanced

loaded 2018-11-12 15:11:19 • last modified 2010-11-18 10:43:29
Privacy PolicyDisclaimer
• wx.awcolley.com is powered by PmWiki v.2002016 •
• all content (unless otherwise noted) © 2018 A W Colley